createdAt,value
2023-05-10T00:02:17.503Z,10.45
2023-05-10T00:07:20.163Z,10.47
2023-05-10T00:12:22.708Z,10.47
2023-05-10T00:17:25.148Z,10.42
2023-05-10T00:22:27.718Z,10.48
2023-05-10T00:27:30.301Z,10.57
2023-05-10T00:32:33.175Z,10.66
2023-05-10T00:37:35.709Z,10.58
2023-05-10T00:42:38.211Z,10.64
2023-05-10T00:47:42.456Z,10.68
2023-05-10T00:52:45.214Z,10.68
2023-05-10T00:57:49.291Z,10.70
2023-05-10T01:02:51.970Z,10.68
2023-05-10T01:07:54.727Z,10.66
2023-05-10T01:12:58.183Z,10.68
2023-05-10T01:18:01.768Z,10.63
2023-05-10T01:23:36.256Z,10.69
2023-05-10T01:29:12.932Z,10.66
2023-05-10T01:34:22.228Z,10.60
2023-05-10T01:39:35.299Z,10.62
2023-05-10T01:45:03.728Z,10.49
2023-05-10T01:50:11.581Z,10.41
2023-05-10T01:55:17.428Z,10.37
2023-05-10T02:00:21.575Z,10.37
2023-05-10T02:05:30.395Z,10.29
2023-05-10T02:10:35.585Z,10.25
2023-05-10T02:15:39.976Z,10.30
2023-05-10T02:20:44.521Z,10.35
2023-05-10T02:25:48.764Z,10.32
2023-05-10T02:30:52.736Z,10.20
2023-05-10T02:35:57.181Z,10.38
2023-05-10T02:41:01.004Z,11.97
2023-05-10T02:46:03.881Z,13.11
2023-05-10T02:51:09.473Z,12.48
2023-05-10T02:56:48.361Z,13.66
2023-05-10T03:01:50.974Z,14.29
2023-05-10T03:06:54.395Z,15.06
2023-05-10T03:11:59.888Z,16.06
2023-05-10T03:17:12.039Z,16.67
2023-05-10T03:22:22.908Z,17.11
2023-05-10T03:27:27.501Z,17.98
2023-05-10T03:32:33.820Z,18.58
2023-05-10T03:37:37.339Z,18.58
2023-05-10T03:42:40.018Z,19.08
2023-05-10T03:47:43.759Z,19.79
2023-05-10T03:52:46.537Z,19.58
2023-05-10T03:57:50.779Z,19.64
2023-05-10T04:02:53.520Z,20.07
2023-05-10T04:07:56.567Z,20.10
2023-05-10T04:12:59.382Z,20.57
2023-05-10T04:18:02.226Z,21.06
2023-05-10T04:23:04.749Z,21.59
2023-05-10T04:28:07.568Z,22.08
2023-05-10T04:33:10.106Z,22.00
2023-05-10T04:38:12.648Z,21.94
2023-05-10T04:43:15.232Z,22.96
2023-05-10T04:48:17.768Z,23.45
2023-05-10T04:53:20.272Z,23.74
2023-05-10T04:58:22.825Z,22.05
2023-05-10T05:03:25.431Z,22.13
2023-05-10T05:08:28.271Z,23.44
2023-05-10T05:13:30.847Z,23.79
2023-05-10T05:18:33.337Z,24.68
2023-05-10T05:23:35.804Z,22.01
2023-05-10T05:28:39.610Z,20.99
2023-05-10T05:33:42.224Z,20.57
2023-05-10T05:38:44.840Z,21.12
2023-05-10T05:43:47.205Z,19.98
2023-05-10T05:48:49.724Z,20.30
2023-05-10T05:53:52.930Z,19.62
2023-05-10T05:58:55.473Z,19.07
2023-05-10T06:03:58.002Z,19.26
2023-05-10T06:09:00.519Z,18.55
2023-05-10T06:14:05.049Z,18.50
2023-05-10T06:19:07.614Z,18.35
2023-05-10T06:24:10.081Z,18.74
2023-05-10T06:29:12.557Z,18.48
2023-05-10T06:34:15.022Z,18.11
2023-05-10T06:39:18.014Z,17.99
2023-05-10T06:44:20.641Z,17.90
2023-05-10T06:49:23.438Z,17.93
2023-05-10T06:54:25.926Z,17.61
2023-05-10T06:59:28.398Z,17.87
2023-05-10T07:04:30.873Z,18.11
2023-05-10T07:09:33.697Z,18.56
2023-05-10T07:14:36.249Z,18.58
2023-05-10T07:19:38.726Z,19.06
2023-05-10T07:24:41.823Z,19.85
2023-05-10T07:29:44.224Z,19.41
2023-05-10T07:34:46.857Z,19.66
2023-05-10T07:39:49.334Z,19.99
2023-05-10T07:44:52.384Z,20.19
2023-05-10T07:49:55.020Z,20.67
2023-05-10T07:54:58.162Z,21.86
2023-05-10T08:00:00.866Z,21.93
2023-05-10T08:05:03.602Z,22.04
2023-05-10T08:10:07.105Z,22.83
2023-05-10T08:15:10.166Z,22.86
2023-05-10T08:20:14.107Z,23.17
2023-05-10T08:25:16.939Z,24.07
2023-05-10T08:30:19.614Z,23.93
2023-05-10T08:35:22.177Z,23.68
2023-05-10T08:40:27.543Z,23.47
2023-05-10T08:45:33.980Z,23.85
2023-05-10T08:50:41.795Z,24.96
2023-05-10T08:55:44.618Z,26.34
2023-05-10T09:00:48.438Z,28.13
2023-05-10T09:05:51.269Z,27.56
2023-05-10T09:10:56.131Z,26.15
2023-05-10T09:16:06.983Z,26.00
2023-05-10T09:21:16.633Z,25.45
2023-05-10T09:26:24.038Z,24.80
2023-05-10T09:31:46.410Z,24.15
2023-05-10T09:36:56.493Z,25.35
2023-05-10T09:42:01.077Z,26.24
2023-05-10T09:47:04.222Z,26.76
2023-05-10T09:52:09.890Z,27.88
2023-05-10T09:57:23.237Z,28.31
2023-05-10T10:02:30.580Z,29.36
2023-05-10T10:07:33.593Z,29.59
2023-05-10T10:12:36.950Z,29.92
2023-05-10T10:17:40.444Z,28.31
2023-05-10T10:22:43.339Z,27.47
2023-05-10T10:27:55.448Z,27.43
2023-05-10T10:33:29.223Z,25.87
2023-05-10T10:39:02.095Z,24.91
2023-05-10T10:44:37.911Z,26.28
2023-05-10T10:49:40.514Z,25.87
2023-05-10T10:54:50.909Z,25.11
2023-05-10T11:00:13.999Z,23.72
2023-05-10T11:05:42.640Z,23.78
2023-05-10T11:11:08.308Z,23.50
2023-05-10T11:16:15.571Z,22.81
2023-05-10T11:21:18.314Z,22.13
2023-05-10T11:26:24.348Z,22.52
2023-05-10T11:31:28.167Z,21.83
2023-05-10T11:36:35.185Z,22.20
2023-05-10T11:41:37.664Z,22.44
2023-05-10T11:46:40.146Z,22.10
2023-05-10T11:51:44.814Z,21.73
2023-05-10T11:56:47.301Z,22.80
2023-05-10T12:01:49.897Z,22.37
2023-05-10T12:06:52.432Z,22.13
2023-05-10T12:11:58.332Z,21.81
2023-05-10T12:17:00.886Z,21.48
2023-05-10T12:22:06.817Z,21.89
2023-05-10T12:27:10.162Z,21.67
2023-05-10T12:32:12.735Z,21.63
2023-05-10T12:37:15.461Z,21.34
2023-05-10T12:42:18.184Z,21.00
2023-05-10T12:47:20.839Z,20.78
2023-05-10T12:52:23.398Z,20.92
2023-05-10T12:57:26.313Z,20.85
2023-05-10T13:02:28.851Z,21.22
2023-05-10T13:07:31.328Z,21.38
2023-05-10T13:12:34.312Z,21.25
2023-05-10T13:17:36.857Z,20.80
2023-05-10T13:22:40.714Z,20.62
2023-05-10T13:27:43.586Z,20.62
2023-05-10T13:32:46.953Z,20.44
2023-05-10T13:37:49.644Z,20.36
2023-05-10T13:42:54.342Z,20.17
2023-05-10T13:47:56.832Z,19.88
2023-05-10T13:52:59.505Z,19.79
2023-05-10T13:58:02.104Z,19.67
2023-05-10T14:03:06.288Z,19.67
2023-05-10T14:08:10.682Z,19.48
2023-05-10T14:13:13.620Z,19.16
2023-05-10T14:18:16.175Z,18.31
2023-05-10T14:23:18.778Z,17.84
2023-05-10T14:28:22.135Z,17.76
2023-05-10T14:33:24.719Z,17.78
2023-05-10T14:38:27.965Z,17.70
2023-05-10T14:43:30.425Z,17.51
2023-05-10T14:48:32.993Z,17.30
2023-05-10T14:53:36.027Z,17.10
2023-05-10T14:58:38.591Z,17.02
2023-05-10T15:03:41.785Z,17.01
2023-05-10T15:08:45.084Z,17.05
2023-05-10T15:13:49.029Z,17.05
2023-05-10T15:18:52.038Z,16.97
2023-05-10T15:23:54.717Z,16.95
2023-05-10T15:28:57.613Z,16.82
2023-05-10T15:34:02.717Z,16.53
2023-05-10T15:39:05.284Z,16.41
2023-05-10T15:44:07.933Z,16.29
2023-05-10T15:49:10.461Z,16.29
2023-05-10T15:54:12.959Z,16.21
2023-05-10T15:59:15.551Z,16.14
2023-05-10T16:04:18.485Z,16.07
2023-05-10T16:09:21.982Z,15.95
2023-05-10T16:14:25.080Z,15.88
2023-05-10T16:19:29.771Z,15.83
2023-05-10T16:24:32.654Z,15.67
2023-05-10T16:29:35.356Z,15.60
2023-05-10T16:34:37.853Z,15.51
2023-05-10T16:39:40.452Z,15.44
2023-05-10T16:44:43.127Z,15.35
2023-05-10T16:49:45.895Z,15.33
2023-05-10T16:54:48.334Z,15.33
2023-05-10T16:59:53.688Z,15.23
2023-05-10T17:04:56.558Z,15.13
2023-05-10T17:09:59.729Z,15.04
2023-05-10T17:15:02.451Z,14.94
2023-05-10T17:20:08.630Z,14.91
2023-05-10T17:25:11.446Z,14.96
2023-05-10T17:30:14.346Z,14.95
2023-05-10T17:35:17.328Z,14.88
2023-05-10T17:40:20.134Z,14.80
2023-05-10T17:45:23.547Z,14.81
2023-05-10T17:50:26.415Z,14.75
2023-05-10T17:55:31.128Z,14.70
2023-05-10T18:00:33.618Z,14.68
2023-05-10T18:05:37.691Z,14.52
2023-05-10T18:10:41.466Z,14.41
2023-05-10T18:15:44.370Z,14.28
2023-05-10T18:20:46.891Z,14.15
2023-05-10T18:25:49.682Z,14.10
2023-05-10T18:30:52.234Z,13.98
2023-05-10T18:35:55.224Z,13.98
2023-05-10T18:40:58.171Z,13.94
2023-05-10T18:46:00.930Z,13.85
2023-05-10T18:51:03.619Z,13.78
2023-05-10T18:56:07.504Z,13.77
2023-05-10T19:01:10.191Z,13.75
2023-05-10T19:06:12.804Z,13.69
2023-05-10T19:11:15.726Z,13.63
2023-05-10T19:16:21.842Z,13.69
2023-05-10T19:21:25.499Z,13.68
2023-05-10T19:26:28.563Z,13.68
2023-05-10T19:31:31.454Z,13.62
2023-05-10T19:36:34.843Z,13.57
2023-05-10T19:41:37.693Z,13.55
2023-05-10T19:46:40.340Z,13.48
2023-05-10T19:51:43.052Z,13.42
2023-05-10T19:56:45.546Z,13.29
2023-05-10T20:01:48.013Z,13.22
2023-05-10T20:06:50.501Z,13.26
2023-05-10T20:11:53.089Z,13.15
2023-05-10T20:16:56.279Z,13.20
2023-05-10T20:21:59.092Z,13.25
2023-05-10T20:27:02.752Z,13.28
2023-05-10T20:32:05.908Z,13.26
2023-05-10T20:37:08.532Z,13.30
2023-05-10T20:42:10.990Z,13.34
2023-05-10T20:47:15.292Z,13.33
2023-05-10T20:52:17.867Z,13.32
2023-05-10T20:57:20.566Z,13.27
2023-05-10T21:02:23.155Z,13.30
2023-05-10T21:07:25.863Z,13.29
2023-05-10T21:12:28.400Z,13.32
2023-05-10T21:17:31.015Z,13.29
2023-05-10T21:22:33.478Z,13.42
2023-05-10T21:27:35.951Z,13.38
2023-05-10T21:32:38.448Z,13.42
2023-05-10T21:37:40.964Z,13.44
2023-05-10T21:42:43.600Z,13.46
2023-05-10T21:47:46.256Z,13.49
2023-05-10T21:52:48.887Z,13.52
2023-05-10T21:57:51.457Z,13.46
2023-05-10T22:02:54.089Z,13.40
2023-05-10T22:07:56.677Z,13.36
2023-05-10T22:13:00.431Z,13.45
2023-05-10T22:18:03.024Z,13.35
2023-05-10T22:23:05.621Z,13.29
2023-05-10T22:28:09.558Z,13.24
2023-05-10T22:33:12.359Z,13.20
2023-05-10T22:38:15.373Z,13.12
2023-05-10T22:43:18.542Z,13.04
2023-05-10T22:48:21.511Z,12.97
2023-05-10T22:53:24.054Z,12.95
2023-05-10T22:58:26.981Z,12.90
2023-05-10T23:03:30.505Z,12.85
2023-05-10T23:08:33.029Z,12.81
2023-05-10T23:13:35.511Z,12.81
2023-05-10T23:18:38.012Z,12.87
2023-05-10T23:23:40.904Z,12.79
2023-05-10T23:28:43.334Z,12.77
2023-05-10T23:33:45.917Z,12.69
2023-05-10T23:38:49.705Z,12.66
2023-05-10T23:43:52.082Z,12.61
2023-05-10T23:48:54.564Z,12.47
2023-05-10T23:53:56.982Z,12.49
2023-05-10T23:58:59.524Z,12.42
